MDLR/LRM METAR and TAF weather

Enter ICAO airport designator
Station Type Date Time Source
MDLR METAR 2021/01/20 22:00 UTC NOAA

MDLR 202200Z 09004KT 9999 SCT020 27/20 Q1013


Station Type Date Time Source
MDLR Decoded METAR 2021/01/20 22:00 UTC NOAA

La Romana International Airport, Dominican Republic (MDLR) 18-25N 068-57W
Jan 20, 2021 - 05:00 PM EST / 2021.01.20 2200 UTC
Wind: from the E (090 degrees) at 5 MPH (4 KT):0
Visibility: greater than 7 mile(s):0
Sky conditions: partly cloudy
Temperature: 80 F (27 C)
Dew Point: 68 F (20 C)
Relative Humidity: 65%
Pressure (altimeter): 29.91 in. Hg (1013 hPa)
ob: MDLR 202200Z 09004KT 9999 SCT020 27/20 Q1013
cycle: 22

Station Type Date Time Source
MDLR TAF 2021/01/20 18:33 UTC NOAA

TAF TAF MDLR 201600Z 2018/2118 04010KT 9999 BKN018 SCT080 PROB30 2018/2023 7000 -RA BKN016 SCT070
BECMG 2100/2102 00000KT

Example: see airport list